createdAt,value
2023-01-11T00:00:56.793Z,81.10
2023-01-11T00:05:50.333Z,82.00
2023-01-11T00:08:19.126Z,81.68
2023-01-11T00:10:45.962Z,78.40
2023-01-11T00:13:13.928Z,80.07
2023-01-11T00:15:41.096Z,80.05
2023-01-11T00:18:07.933Z,81.72
2023-01-11T00:20:35.312Z,84.93
2023-01-11T00:23:02.162Z,92.18
2023-01-11T00:25:29.221Z,88.70
2023-01-11T00:27:56.167Z,88.38
2023-01-11T00:30:26.004Z,87.93
2023-01-11T00:32:58.109Z,86.78
2023-01-11T00:35:26.374Z,86.00
2023-01-11T00:37:54.495Z,87.80
2023-01-11T00:40:21.947Z,83.40
2023-01-11T00:43:07.607Z,78.18
2023-01-11T00:45:53.171Z,84.07
2023-01-11T00:48:20.026Z,76.43
2023-01-11T00:50:46.868Z,71.53
2023-01-11T00:53:14.492Z,80.13
2023-01-11T00:55:41.377Z,79.35
2023-01-11T00:58:08.220Z,73.35
2023-01-11T01:00:35.194Z,77.13
2023-01-11T01:03:02.109Z,83.82
2023-01-11T01:05:29.041Z,77.22
2023-01-11T01:07:55.875Z,79.97
2023-01-11T01:10:22.783Z,105.47
2023-01-11T01:13:08.102Z,111.25
2023-01-11T01:15:35.067Z,70.05
2023-01-11T01:18:02.165Z,71.57
2023-01-11T01:20:29.109Z,98.40
2023-01-11T01:22:55.946Z,111.63
2023-01-11T01:25:22.982Z,141.82
2023-01-11T01:27:49.864Z,114.72
2023-01-11T01:30:17.243Z,96.22
2023-01-11T01:32:44.169Z,70.13
2023-01-11T01:35:11.469Z,69.68
2023-01-11T01:37:38.373Z,63.83
2023-01-11T01:40:06.717Z,78.82
2023-01-11T01:42:33.970Z,65.82
2023-01-11T01:45:16.849Z,62.58
2023-01-11T01:47:53.276Z,65.45
2023-01-11T01:50:27.491Z,57.75
2023-01-11T01:53:01.940Z,58.80
2023-01-11T01:55:35.607Z,63.05
2023-01-11T01:58:09.988Z,62.30
2023-01-11T02:00:42.507Z,65.20
2023-01-11T02:03:15.540Z,65.32
2023-01-11T02:08:20.688Z,68.72
2023-01-11T02:10:48.170Z,68.78
2023-01-11T02:13:15.457Z,65.35
2023-01-11T02:15:42.425Z,62.72
2023-01-11T02:18:13.986Z,56.80
2023-01-11T02:21:24.268Z,65.95
2023-01-11T02:24:09.727Z,61.47
2023-01-11T02:26:55.471Z,60.92
2023-01-11T02:29:41.247Z,64.63
2023-01-11T02:32:25.483Z,64.72
2023-01-11T02:35:26.426Z,61.25
2023-01-11T02:38:26.161Z,61.65
2023-01-11T02:41:05.087Z,60.13
2023-01-11T02:44:08.234Z,59.80
2023-01-11T02:46:46.284Z,62.00
2023-01-11T02:49:39.727Z,61.58
2023-01-11T02:54:53.973Z,63.67
2023-01-11T02:57:22.857Z,66.43
2023-01-11T02:59:51.142Z,69.72
2023-01-11T03:02:18.368Z,67.30
2023-01-11T03:04:45.228Z,65.80
2023-01-11T03:07:38.906Z,68.28
2023-01-11T03:10:41.496Z,78.75
2023-01-11T03:13:50.396Z,63.03
2023-01-11T03:16:34.441Z,68.00
2023-01-11T03:19:45.081Z,75.68
2023-01-11T03:22:59.645Z,73.10
2023-01-11T03:25:40.940Z,71.05
2023-01-11T03:28:40.371Z,65.78
2023-01-11T03:31:19.179Z,71.88
2023-01-11T03:34:00.729Z,65.10
2023-01-11T03:36:39.499Z,65.20
2023-01-11T03:39:44.672Z,65.05
2023-01-11T03:42:19.292Z,64.70
2023-01-11T03:44:54.576Z,66.43
2023-01-11T03:47:26.565Z,60.03
2023-01-11T03:49:59.948Z,63.17
2023-01-11T03:52:34.580Z,68.45
2023-01-11T03:55:05.784Z,64.10
2023-01-11T03:57:37.386Z,59.28
2023-01-11T04:00:07.586Z,56.70
2023-01-11T04:02:39.653Z,57.45
2023-01-11T04:05:09.652Z,65.30
2023-01-11T04:07:36.685Z,56.80
2023-01-11T04:10:05.051Z,52.30
2023-01-11T04:12:34.895Z,57.33
2023-01-11T04:15:03.334Z,55.10
2023-01-11T04:17:30.177Z,54.15
2023-01-11T04:19:57.108Z,50.60
2023-01-11T04:22:23.988Z,48.67
2023-01-11T04:24:50.839Z,52.70
2023-01-11T04:27:17.656Z,58.60
2023-01-11T04:29:44.455Z,57.17
2023-01-11T04:32:11.311Z,53.40
2023-01-11T04:34:38.352Z,56.45
2023-01-11T04:37:05.218Z,51.22
2023-01-11T04:39:32.078Z,48.97
2023-01-11T04:42:17.235Z,52.22
2023-01-11T04:44:48.930Z,53.60
2023-01-11T04:47:16.927Z,56.78
2023-01-11T04:49:44.388Z,56.20
2023-01-11T04:52:14.019Z,51.90
2023-01-11T04:54:41.793Z,52.05
2023-01-11T04:57:13.321Z,52.15
2023-01-11T04:59:40.446Z,50.92
2023-01-11T05:02:07.484Z,57.90
2023-01-11T05:04:34.691Z,52.33
2023-01-11T05:07:01.796Z,52.88
2023-01-11T05:09:28.844Z,51.35
2023-01-11T05:11:55.680Z,52.28
2023-01-11T05:14:22.646Z,49.33
2023-01-11T05:16:49.601Z,50.15
2023-01-11T05:19:16.650Z,45.90
2023-01-11T05:21:43.545Z,43.10
2023-01-11T05:24:16.162Z,41.85
2023-01-11T05:26:45.857Z,43.78
2023-01-11T05:29:16.399Z,39.70
2023-01-11T05:31:43.522Z,39.00
2023-01-11T05:34:13.819Z,35.50
2023-01-11T05:36:44.705Z,41.58
2023-01-11T05:39:13.872Z,41.10
2023-01-11T05:41:41.361Z,39.65
2023-01-11T05:44:31.875Z,38.65
2023-01-11T05:46:59.273Z,33.65
2023-01-11T05:49:26.212Z,38.03
2023-01-11T05:51:53.091Z,34.30
2023-01-11T05:54:20.059Z,39.22
2023-01-11T05:56:46.898Z,35.78
2023-01-11T05:59:13.750Z,34.15
2023-01-11T06:01:40.694Z,31.52
2023-01-11T06:04:08.490Z,34.05
2023-01-11T06:06:35.725Z,31.15
2023-01-11T06:09:02.748Z,27.38
2023-01-11T06:11:29.909Z,33.55
2023-01-11T06:13:56.735Z,27.73
2023-01-11T06:16:24.127Z,30.33
2023-01-11T06:18:53.259Z,30.13
2023-01-11T06:21:21.604Z,29.42
2023-01-11T06:23:51.001Z,24.48
2023-01-11T06:26:21.636Z,26.42
2023-01-11T06:28:48.850Z,26.08
2023-01-11T06:31:17.956Z,25.15
2023-01-11T06:33:46.131Z,29.00
2023-01-11T06:36:14.987Z,23.98
2023-01-11T06:38:42.792Z,27.23
2023-01-11T06:41:11.325Z,27.77
2023-01-11T06:43:42.395Z,23.42
2023-01-11T06:46:14.738Z,25.70
2023-01-11T06:48:43.685Z,25.05
2023-01-11T06:51:12.037Z,20.67
2023-01-11T06:53:40.944Z,27.30
2023-01-11T06:56:12.559Z,29.23
2023-01-11T06:58:39.695Z,27.83
2023-01-11T07:01:07.445Z,24.83
2023-01-11T07:03:34.536Z,28.17
2023-01-11T07:06:02.367Z,29.42
2023-01-11T07:08:29.400Z,25.33
2023-01-11T07:10:56.790Z,29.48
2023-01-11T07:13:23.953Z,27.52
2023-01-11T07:15:52.326Z,26.13
2023-01-11T07:18:20.115Z,27.25
2023-01-11T07:20:47.781Z,31.13
2023-01-11T07:23:15.134Z,26.27
2023-01-11T07:25:42.099Z,27.15
2023-01-11T07:28:09.570Z,30.15
2023-01-11T07:30:56.287Z,31.17
2023-01-11T07:33:25.256Z,27.63
2023-01-11T07:35:52.319Z,28.33
2023-01-11T07:38:19.481Z,29.20
2023-01-11T07:40:46.381Z,30.50
2023-01-11T07:43:15.012Z,31.75
2023-01-11T07:45:51.862Z,29.65
2023-01-11T07:48:29.263Z,27.48
2023-01-11T07:50:56.202Z,30.98
2023-01-11T07:53:26.220Z,30.95
2023-01-11T07:55:55.845Z,28.90
2023-01-11T07:58:22.868Z,30.05
2023-01-11T08:00:49.790Z,38.13
2023-01-11T08:03:16.929Z,37.35
2023-01-11T08:05:43.910Z,29.05
2023-01-11T08:08:10.807Z,23.70
2023-01-11T08:10:38.757Z,33.17
2023-01-11T08:13:32.177Z,27.75
2023-01-11T08:16:00.054Z,25.17
2023-01-11T08:18:27.005Z,30.25
2023-01-11T08:20:54.193Z,25.88
2023-01-11T08:23:21.229Z,30.83
2023-01-11T08:25:48.182Z,25.63
2023-01-11T08:28:15.036Z,27.50
2023-01-11T08:30:42.000Z,27.45
2023-01-11T08:33:10.272Z,28.83
2023-01-11T08:35:39.223Z,26.33
2023-01-11T08:38:06.951Z,27.05
2023-01-11T08:40:34.264Z,22.67
2023-01-11T08:43:01.113Z,24.98
2023-01-11T08:45:28.205Z,23.00
2023-01-11T08:47:55.837Z,25.27
2023-01-11T08:50:23.204Z,24.45
2023-01-11T08:52:51.879Z,25.60
2023-01-11T08:55:21.493Z,32.17
2023-01-11T08:57:51.452Z,23.45
2023-01-11T09:00:19.559Z,22.88
2023-01-11T09:02:46.525Z,25.70
2023-01-11T09:05:13.457Z,26.98
2023-01-11T09:07:40.564Z,24.40
2023-01-11T09:10:08.036Z,23.08
2023-01-11T09:12:35.276Z,24.77
2023-01-11T09:15:02.511Z,25.17
2023-01-11T09:17:29.389Z,26.85
2023-01-11T09:19:56.273Z,28.55
2023-01-11T09:22:23.793Z,28.50
2023-01-11T09:24:50.673Z,25.10
2023-01-11T09:27:17.610Z,29.50
2023-01-11T09:29:44.630Z,30.10
2023-01-11T09:32:11.569Z,27.02
2023-01-11T09:34:39.220Z,27.90
2023-01-11T09:37:07.103Z,28.55
2023-01-11T09:39:35.234Z,24.75
2023-01-11T09:42:39.458Z,23.73
2023-01-11T09:45:21.759Z,29.98
2023-01-11T09:48:14.746Z,18.87
2023-01-11T09:50:47.752Z,26.73
2023-01-11T09:56:03.824Z,24.65
2023-01-11T09:58:51.623Z,22.48
2023-01-11T10:01:42.547Z,27.55
2023-01-11T10:05:04.167Z,24.70
2023-01-11T10:07:34.688Z,28.98
2023-01-11T10:18:31.914Z,23.33
2023-01-11T10:19:39.477Z,23.40
2023-01-11T10:22:33.631Z,19.17
2023-01-11T10:25:16.894Z,25.13
2023-01-11T10:30:59.666Z,21.98
2023-01-11T10:33:48.212Z,23.03
2023-01-11T10:36:36.724Z,21.92
2023-01-11T10:40:14.599Z,24.27
2023-01-11T10:43:21.689Z,23.27
2023-01-11T10:48:45.512Z,31.50
2023-01-11T10:51:32.455Z,28.83
2023-01-11T10:54:35.571Z,24.42
2023-01-11T10:57:25.350Z,21.52
2023-01-11T11:00:34.102Z,25.23
2023-01-11T11:03:48.452Z,23.15
2023-01-11T11:06:27.682Z,23.23
2023-01-11T11:09:21.265Z,23.30
2023-01-11T11:12:00.255Z,24.80
2023-01-11T11:14:51.463Z,22.83
2023-01-11T11:17:32.769Z,28.00
2023-01-11T11:20:00.286Z,21.55
2023-01-11T11:22:30.011Z,25.85
2023-01-11T11:25:11.929Z,27.95
2023-01-11T11:27:46.499Z,20.23
2023-01-11T11:30:26.499Z,23.98
2023-01-11T11:33:25.761Z,22.77
2023-01-11T11:36:04.869Z,21.13
2023-01-11T11:38:38.914Z,21.58
2023-01-11T11:41:19.128Z,22.42
2023-01-11T11:43:48.038Z,20.40
2023-01-11T11:46:19.453Z,22.08
2023-01-11T11:49:16.804Z,21.75
2023-01-11T11:51:47.096Z,22.67
2023-01-11T11:54:36.573Z,21.35
2023-01-11T11:57:42.686Z,33.42
2023-01-11T12:00:45.941Z,25.35
2023-01-11T12:03:23.575Z,47.40
2023-01-11T12:05:55.820Z,48.47
2023-01-11T12:08:27.117Z,35.97
2023-01-11T12:10:59.770Z,21.50
2023-01-11T12:13:35.182Z,21.05
2023-01-11T12:16:20.817Z,24.23
2023-01-11T12:18:48.588Z,22.33
2023-01-11T12:21:24.231Z,24.92
2023-01-11T12:24:19.048Z,23.45
2023-01-11T12:26:54.980Z,17.98
2023-01-11T12:29:32.086Z,21.30
2023-01-11T12:32:23.023Z,20.15
2023-01-11T12:35:33.833Z,24.02
2023-01-11T12:38:21.076Z,21.05
2023-01-11T12:41:49.055Z,20.33
2023-01-11T12:44:50.388Z,19.67
2023-01-11T12:47:48.030Z,22.55
2023-01-11T12:50:24.807Z,22.52
2023-01-11T12:53:12.936Z,21.63
2023-01-11T12:56:13.215Z,22.58
2023-01-11T12:58:57.906Z,21.67
2023-01-11T13:02:11.142Z,22.88
2023-01-11T13:05:17.163Z,26.15
2023-01-11T13:08:12.260Z,24.42
2023-01-11T13:11:34.989Z,18.58
2023-01-11T13:14:31.546Z,25.98
2023-01-11T13:17:27.503Z,23.70
2023-01-11T13:20:16.622Z,21.13
2023-01-11T13:22:58.974Z,20.58
2023-01-11T13:25:34.092Z,19.50
2023-01-11T13:28:23.883Z,18.73
2023-01-11T13:30:51.583Z,21.77
2023-01-11T13:33:23.571Z,21.67
2023-01-11T13:36:22.575Z,27.58
2023-01-11T13:39:20.784Z,24.35
2023-01-11T13:42:00.516Z,26.10
2023-01-11T13:44:37.203Z,32.40
2023-01-11T13:47:19.714Z,36.63
2023-01-11T13:50:10.272Z,26.90
2023-01-11T13:53:09.740Z,20.75
2023-01-11T13:56:06.187Z,19.45
2023-01-11T13:58:48.531Z,24.75
2023-01-11T14:01:42.738Z,21.43
2023-01-11T14:04:27.439Z,20.75
2023-01-11T14:07:24.879Z,23.83
2023-01-11T14:10:23.198Z,22.92
2023-01-11T14:13:01.893Z,24.33
2023-01-11T14:15:59.304Z,26.17
2023-01-11T14:18:40.846Z,22.02
2023-01-11T14:21:30.334Z,24.75
2023-01-11T14:23:58.361Z,24.05
2023-01-11T14:27:00.525Z,19.85
2023-01-11T14:30:06.132Z,22.17
2023-01-11T14:33:19.234Z,22.13
2023-01-11T14:36:24.302Z,16.97
2023-01-11T14:39:29.680Z,19.85
2023-01-11T14:42:32.117Z,17.30
2023-01-11T14:45:35.249Z,20.75
2023-01-11T14:48:35.997Z,18.42
2023-01-11T14:51:43.824Z,26.27
2023-01-11T14:54:21.446Z,30.25
2023-01-11T14:57:01.104Z,32.40
2023-01-11T14:59:30.717Z,19.70
2023-01-11T15:02:03.379Z,23.40
2023-01-11T15:04:57.677Z,32.53
2023-01-11T15:07:26.178Z,27.83
2023-01-11T15:09:54.085Z,41.42
2023-01-11T15:12:34.189Z,34.83
2023-01-11T15:15:16.932Z,28.33
2023-01-11T15:18:03.091Z,29.88
2023-01-11T15:20:30.777Z,25.35
2023-01-11T15:23:05.312Z,26.75
2023-01-11T15:25:35.058Z,32.58
2023-01-11T15:28:44.459Z,25.25
2023-01-11T15:31:58.507Z,17.05
2023-01-11T15:34:39.776Z,16.80
2023-01-11T15:37:42.715Z,19.73
2023-01-11T15:40:29.049Z,19.60
2023-01-11T15:43:47.015Z,20.27
2023-01-11T15:46:55.167Z,19.38
2023-01-11T15:49:43.009Z,22.85
2023-01-11T15:52:53.328Z,21.33
2023-01-11T15:56:22.962Z,19.88
2023-01-11T15:59:34.396Z,22.48
2023-01-11T16:02:13.156Z,22.08
2023-01-11T16:04:57.536Z,22.83
2023-01-11T16:07:42.995Z,21.98
2023-01-11T16:10:30.986Z,22.10
2023-01-11T16:13:00.618Z,23.95
2023-01-11T16:15:50.743Z,26.58
2023-01-11T16:18:26.146Z,22.95
2023-01-11T16:21:21.286Z,25.50
2023-01-11T16:23:49.574Z,24.85
2023-01-11T16:26:22.046Z,28.98
2023-01-11T16:28:58.894Z,16.75
2023-01-11T16:31:55.717Z,30.85
2023-01-11T16:34:26.023Z,24.20
2023-01-11T16:36:53.039Z,32.22
2023-01-11T16:39:25.608Z,32.92
2023-01-11T16:42:05.775Z,26.70
2023-01-11T16:44:58.836Z,24.70
2023-01-11T16:47:25.780Z,27.83
2023-01-11T16:50:21.384Z,28.80
2023-01-11T16:53:11.154Z,35.05
2023-01-11T16:55:41.180Z,32.90
2023-01-11T16:58:30.179Z,40.35
2023-01-11T17:01:00.630Z,38.47
2023-01-11T17:03:37.126Z,39.92
2023-01-11T17:06:12.790Z,23.65
2023-01-11T17:08:43.309Z,23.75
2023-01-11T17:11:39.427Z,28.73
2023-01-11T17:14:30.713Z,28.58
2023-01-11T17:17:02.404Z,24.52
2023-01-11T17:19:34.325Z,24.85
2023-01-11T17:22:30.591Z,30.08
2023-01-11T17:25:04.321Z,29.52
2023-01-11T17:27:44.840Z,25.33
2023-01-11T17:30:24.824Z,28.77
2023-01-11T17:32:56.373Z,39.03
2023-01-11T17:35:31.465Z,28.08
2023-01-11T17:38:02.951Z,28.58
2023-01-11T17:40:40.406Z,32.10
2023-01-11T17:43:35.269Z,27.50
2023-01-11T17:46:05.272Z,28.75
2023-01-11T17:48:33.907Z,28.65
2023-01-11T17:51:06.066Z,26.45
2023-01-11T17:53:37.594Z,34.40
2023-01-11T17:56:07.840Z,28.80
2023-01-11T17:58:38.473Z,28.38
2023-01-11T18:01:08.257Z,30.38
2023-01-11T18:03:49.101Z,32.72
2023-01-11T18:06:39.965Z,38.42
2023-01-11T18:09:22.307Z,45.13
2023-01-11T18:11:52.252Z,38.10
2023-01-11T18:14:28.333Z,44.38
2023-01-11T18:17:04.949Z,85.32
2023-01-11T18:19:42.445Z,69.20
2023-01-11T18:22:29.619Z,41.92
2023-01-11T18:25:00.410Z,47.45
2023-01-11T18:27:34.029Z,37.63
2023-01-11T18:30:07.929Z,41.88
2023-01-11T18:32:42.105Z,40.08
2023-01-11T18:35:19.852Z,45.35
2023-01-11T18:37:47.183Z,32.35
2023-01-11T18:40:16.555Z,40.33
2023-01-11T18:42:48.489Z,31.83
2023-01-11T18:45:16.054Z,30.17
2023-01-11T18:47:43.423Z,35.85
2023-01-11T18:50:14.072Z,28.80
2023-01-11T18:52:40.963Z,34.40
2023-01-11T18:55:11.746Z,34.95
2023-01-11T18:57:38.689Z,31.73
2023-01-11T19:00:06.327Z,41.78
2023-01-11T19:02:42.901Z,39.05
2023-01-11T19:05:18.673Z,39.53
2023-01-11T19:07:46.420Z,40.35
2023-01-11T19:10:20.682Z,39.05
2023-01-11T19:12:47.859Z,38.53
2023-01-11T19:15:15.793Z,44.40
2023-01-11T19:17:43.528Z,35.17
2023-01-11T19:20:13.373Z,41.80
2023-01-11T19:22:41.043Z,36.53
2023-01-11T19:25:10.895Z,43.05
2023-01-11T19:27:38.424Z,36.58
2023-01-11T19:30:09.664Z,41.33
2023-01-11T19:32:36.624Z,40.92
2023-01-11T19:35:03.801Z,35.35
2023-01-11T19:37:31.127Z,40.35
2023-01-11T19:39:58.063Z,36.20
2023-01-11T19:42:25.100Z,35.83
2023-01-11T19:44:53.327Z,36.38
2023-01-11T19:47:20.562Z,39.40
2023-01-11T19:49:47.618Z,36.72
2023-01-11T19:52:19.308Z,35.92
2023-01-11T19:54:47.337Z,42.72
2023-01-11T19:57:23.236Z,42.88
2023-01-11T19:59:50.830Z,38.42
2023-01-11T20:02:21.106Z,52.80
2023-01-11T20:04:48.353Z,55.03
2023-01-11T20:07:16.084Z,52.55
2023-01-11T20:09:43.777Z,42.58
2023-01-11T20:12:15.461Z,64.30
2023-01-11T20:14:44.471Z,72.57
2023-01-11T20:17:12.612Z,72.55
2023-01-11T20:19:39.712Z,77.20
2023-01-11T20:22:06.705Z,61.45
2023-01-11T20:24:33.600Z,87.70
2023-01-11T20:27:03.004Z,57.03
2023-01-11T20:29:30.678Z,64.70
2023-01-11T20:32:10.515Z,78.95
2023-01-11T20:34:45.566Z,55.83
2023-01-11T20:37:12.577Z,53.15
2023-01-11T20:39:39.577Z,50.38
2023-01-11T20:42:06.576Z,58.25
2023-01-11T20:44:33.482Z,45.33
2023-01-11T20:47:01.142Z,37.63
2023-01-11T20:49:29.984Z,49.53
2023-01-11T20:51:57.661Z,50.92
2023-01-11T20:54:24.805Z,35.65
2023-01-11T20:56:54.577Z,57.95
2023-01-11T20:59:21.524Z,41.63
2023-01-11T21:01:49.944Z,38.47
2023-01-11T21:04:18.514Z,46.05
2023-01-11T21:06:50.815Z,41.13
2023-01-11T21:09:18.779Z,35.88
2023-01-11T21:11:53.208Z,43.65
2023-01-11T21:14:22.315Z,48.92
2023-01-11T21:16:49.586Z,39.70
2023-01-11T21:19:17.107Z,47.72
2023-01-11T21:21:44.577Z,68.53
2023-01-11T21:24:16.248Z,57.20
2023-01-11T21:26:45.620Z,62.28
2023-01-11T21:29:13.197Z,52.92
2023-01-11T21:31:40.947Z,63.45
2023-01-11T21:34:11.222Z,56.75
2023-01-11T21:36:38.286Z,54.40
2023-01-11T21:39:05.644Z,49.40
2023-01-11T21:41:52.340Z,71.15
2023-01-11T21:44:21.652Z,55.75
2023-01-11T21:46:50.237Z,47.35
2023-01-11T21:49:17.752Z,43.13
2023-01-11T21:51:44.622Z,46.95
2023-01-11T21:54:15.116Z,38.60
2023-01-11T21:56:42.024Z,35.88
2023-01-11T21:59:09.363Z,32.75
2023-01-11T22:01:37.485Z,31.92
2023-01-11T22:04:06.720Z,30.50
2023-01-11T22:06:38.161Z,36.55
2023-01-11T22:09:08.088Z,33.28
2023-01-11T22:11:35.266Z,28.23
2023-01-11T22:14:04.171Z,36.40
2023-01-11T22:16:32.519Z,27.30
2023-01-11T22:19:01.277Z,36.45
2023-01-11T22:21:29.290Z,35.50
2023-01-11T22:23:58.852Z,28.48
2023-01-11T22:26:29.925Z,50.45
2023-01-11T22:29:12.521Z,31.70
2023-01-11T22:31:44.676Z,31.50
2023-01-11T22:34:13.832Z,33.05
2023-01-11T22:36:42.265Z,31.35
2023-01-11T22:39:09.843Z,28.75
2023-01-11T22:41:37.230Z,26.40
2023-01-11T22:44:04.284Z,30.33
2023-01-11T22:46:31.141Z,25.02
2023-01-11T22:48:58.833Z,29.02
2023-01-11T22:51:27.466Z,24.75
2023-01-11T22:53:56.460Z,25.40
2023-01-11T22:56:26.494Z,28.88
2023-01-11T22:58:54.092Z,22.70
2023-01-11T23:01:34.822Z,22.98
2023-01-11T23:04:02.858Z,31.45
2023-01-11T23:06:36.834Z,28.42
2023-01-11T23:09:06.779Z,31.90
2023-01-11T23:11:57.198Z,22.90
2023-01-11T23:14:31.114Z,19.38
2023-01-11T23:17:05.855Z,21.02
2023-01-11T23:19:34.872Z,21.83
2023-01-11T23:22:02.209Z,20.05
2023-01-11T23:38:00.583Z,26.45
2023-01-11T23:40:27.479Z,26.30
2023-01-11T23:42:54.367Z,24.13
2023-01-11T23:45:21.420Z,28.27
2023-01-11T23:47:49.517Z,27.60
2023-01-11T23:50:16.476Z,24.02
2023-01-11T23:52:43.603Z,22.92
2023-01-11T23:55:11.226Z,24.75
2023-01-11T23:57:58.099Z,25.77
